sensor_id;sensor_type;location;lat;lon;timestamp;temperature;humidity
46029;DHT22;31763;48.180;7.904;2024-01-30T00:00:34;9.90;99.90
46029;DHT22;31763;48.180;7.904;2024-01-30T00:03:01;9.80;99.90
46029;DHT22;31763;48.180;7.904;2024-01-30T00:05:28;9.90;99.90
46029;DHT22;31763;48.180;7.904;2024-01-30T00:07:54;10.00;99.90
46029;DHT22;31763;48.180;7.904;2024-01-30T00:10:21;10.10;99.90
46029;DHT22;31763;48.180;7.904;2024-01-30T00:12:48;9.90;99.90
46029;DHT22;31763;48.180;7.904;2024-01-30T00:15:15;10.00;99.90
46029;DHT22;31763;48.180;7.904;2024-01-30T00:17:42;9.90;99.90
46029;DHT22;31763;48.180;7.904;2024-01-30T00:20:10;9.90;99.90
46029;DHT22;31763;48.180;7.904;2024-01-30T00:22:37;9.80;99.90
46029;DHT22;31763;48.180;7.904;2024-01-30T00:25:04;9.60;99.90
46029;DHT22;31763;48.180;7.904;2024-01-30T00:27:31;9.50;99.90
46029;DHT22;31763;48.180;7.904;2024-01-30T00:29:58;9.50;99.90
46029;DHT22;31763;48.180;7.904;2024-01-30T00:32:25;9.60;99.90
46029;DHT22;31763;48.180;7.904;2024-01-30T00:34:52;9.60;99.90
46029;DHT22;31763;48.180;7.904;2024-01-30T00:37:19;9.60;99.90
46029;DHT22;31763;48.180;7.904;2024-01-30T00:39:46;9.50;99.90
46029;DHT22;31763;48.180;7.904;2024-01-30T00:42:13;9.70;99.90
46029;DHT22;31763;48.180;7.904;2024-01-30T00:44:40;9.50;99.90
46029;DHT22;31763;48.180;7.904;2024-01-30T00:47:07;9.50;99.90
46029;DHT22;31763;48.180;7.904;2024-01-30T00:49:34;9.40;99.90
46029;DHT22;31763;48.180;7.904;2024-01-30T00:52:01;9.30;99.90
46029;DHT22;31763;48.180;7.904;2024-01-30T00:54:28;9.40;99.90
46029;DHT22;31763;48.180;7.904;2024-01-30T00:56:55;9.40;99.90
46029;DHT22;31763;48.180;7.904;2024-01-30T00:59:23;9.40;99.90
46029;DHT22;31763;48.180;7.904;2024-01-30T01:01:50;9.40;99.90
46029;DHT22;31763;48.180;7.904;2024-01-30T01:04:17;9.40;99.90
46029;DHT22;31763;48.180;7.904;2024-01-30T01:06:44;9.40;99.90
46029;DHT22;31763;48.180;7.904;2024-01-30T01:09:11;9.40;99.90
46029;DHT22;31763;48.180;7.904;2024-01-30T01:11:39;9.50;99.90
46029;DHT22;31763;48.180;7.904;2024-01-30T01:14:06;9.50;99.90
46029;DHT22;31763;48.180;7.904;2024-01-30T01:16:34;9.40;99.90
46029;DHT22;31763;48.180;7.904;2024-01-30T01:19:01;9.40;99.90
46029;DHT22;31763;48.180;7.904;2024-01-30T01:21:28;9.40;99.90
46029;DHT22;31763;48.180;7.904;2024-01-30T01:23:55;9.30;99.90
46029;DHT22;31763;48.180;7.904;2024-01-30T01:26:23;9.30;99.90
46029;DHT22;31763;48.180;7.904;2024-01-30T01:28:50;9.30;99.90
46029;DHT22;31763;48.180;7.904;2024-01-30T01:31:16;9.30;99.90
46029;DHT22;31763;48.180;7.904;2024-01-30T01:33:45;9.20;99.90
46029;DHT22;31763;48.180;7.904;2024-01-30T01:36:13;9.20;99.90
46029;DHT22;31763;48.180;7.904;2024-01-30T01:38:40;9.30;99.90
46029;DHT22;31763;48.180;7.904;2024-01-30T01:41:07;9.40;99.90
46029;DHT22;31763;48.180;7.904;2024-01-30T01:43:34;9.50;99.90
46029;DHT22;31763;48.180;7.904;2024-01-30T01:46:01;9.50;99.90
46029;DHT22;31763;48.180;7.904;2024-01-30T01:48:28;9.40;99.90
46029;DHT22;31763;48.180;7.904;2024-01-30T01:50:57;9.40;99.90
46029;DHT22;31763;48.180;7.904;2024-01-30T01:53:24;9.40;99.90
46029;DHT22;31763;48.180;7.904;2024-01-30T01:55:52;9.30;99.90
46029;DHT22;31763;48.180;7.904;2024-01-30T01:58:21;9.40;99.90
46029;DHT22;31763;48.180;7.904;2024-01-30T02:00:49;9.50;99.90
46029;DHT22;31763;48.180;7.904;2024-01-30T02:03:18;9.50;99.90
46029;DHT22;31763;48.180;7.904;2024-01-30T02:05:49;9.50;99.90
46029;DHT22;31763;48.180;7.904;2024-01-30T02:08:17;9.60;99.90
46029;DHT22;31763;48.180;7.904;2024-01-30T02:10:44;9.60;99.90
46029;DHT22;31763;48.180;7.904;2024-01-30T02:13:10;9.60;99.90
46029;DHT22;31763;48.180;7.904;2024-01-30T02:15:37;9.60;99.90
46029;DHT22;31763;48.180;7.904;2024-01-30T02:18:04;9.60;99.90
46029;DHT22;31763;48.180;7.904;2024-01-30T02:20:32;9.70;99.90
46029;DHT22;31763;48.180;7.904;2024-01-30T02:23:02;9.80;99.90
46029;DHT22;31763;48.180;7.904;2024-01-30T02:25:39;9.70;99.90
46029;DHT22;31763;48.180;7.904;2024-01-30T02:28:14;9.70;99.90
46029;DHT22;31763;48.180;7.904;2024-01-30T02:30:46;9.70;99.90
46029;DHT22;31763;48.180;7.904;2024-01-30T02:33:13;9.70;99.90
46029;DHT22;31763;48.180;7.904;2024-01-30T02:35:40;9.80;99.90
46029;DHT22;31763;48.180;7.904;2024-01-30T02:38:07;9.80;99.90
46029;DHT22;31763;48.180;7.904;2024-01-30T02:40:35;9.70;99.90
46029;DHT22;31763;48.180;7.904;2024-01-30T02:43:03;9.70;99.90
46029;DHT22;31763;48.180;7.904;2024-01-30T02:45:30;9.80;99.90
46029;DHT22;31763;48.180;7.904;2024-01-30T02:47:57;9.70;99.90
46029;DHT22;31763;48.180;7.904;2024-01-30T02:50:24;9.70;99.90
46029;DHT22;31763;48.180;7.904;2024-01-30T02:52:51;9.70;99.90
46029;DHT22;31763;48.180;7.904;2024-01-30T02:55:17;9.60;99.90
46029;DHT22;31763;48.180;7.904;2024-01-30T02:57:45;9.90;99.90
46029;DHT22;31763;48.180;7.904;2024-01-30T03:03:41;9.80;99.90
46029;DHT22;31763;48.180;7.904;2024-01-30T03:06:09;9.80;99.90
46029;DHT22;31763;48.180;7.904;2024-01-30T03:08:36;9.80;99.90
46029;DHT22;31763;48.180;7.904;2024-01-30T03:11:03;9.70;99.90
46029;DHT22;31763;48.180;7.904;2024-01-30T03:13:30;9.60;99.90
46029;DHT22;31763;48.180;7.904;2024-01-30T03:15:57;9.60;99.90
46029;DHT22;31763;48.180;7.904;2024-01-30T03:18:24;9.60;99.90
46029;DHT22;31763;48.180;7.904;2024-01-30T03:20:51;9.70;99.90
46029;DHT22;31763;48.180;7.904;2024-01-30T03:23:18;9.70;99.90
46029;DHT22;31763;48.180;7.904;2024-01-30T03:25:44;9.60;99.90
46029;DHT22;31763;48.180;7.904;2024-01-30T03:28:11;9.50;99.90
46029;DHT22;31763;48.180;7.904;2024-01-30T03:30:38;9.50;99.90
46029;DHT22;31763;48.180;7.904;2024-01-30T03:33:05;9.60;99.90
46029;DHT22;31763;48.180;7.904;2024-01-30T03:35:32;9.50;99.90
46029;DHT22;31763;48.180;7.904;2024-01-30T03:37:59;9.70;99.90
46029;DHT22;31763;48.180;7.904;2024-01-30T03:40:26;9.50;99.90
46029;DHT22;31763;48.180;7.904;2024-01-30T03:42:53;9.60;99.90
46029;DHT22;31763;48.180;7.904;2024-01-30T03:45:20;9.50;99.90
46029;DHT22;31763;48.180;7.904;2024-01-30T03:47:46;9.40;99.90
46029;DHT22;31763;48.180;7.904;2024-01-30T03:50:13;9.30;99.90
46029;DHT22;31763;48.180;7.904;2024-01-30T03:52:40;9.20;99.90
46029;DHT22;31763;48.180;7.904;2024-01-30T03:55:07;9.20;99.90
46029;DHT22;31763;48.180;7.904;2024-01-30T03:57:35;9.10;99.90
46029;DHT22;31763;48.180;7.904;2024-01-30T04:00:01;9.10;99.90
46029;DHT22;31763;48.180;7.904;2024-01-30T04:02:31;9.00;99.90
46029;DHT22;31763;48.180;7.904;2024-01-30T04:04:58;9.00;99.90
46029;DHT22;31763;48.180;7.904;2024-01-30T04:07:25;9.00;99.90
46029;DHT22;31763;48.180;7.904;2024-01-30T04:09:52;8.90;99.90
46029;DHT22;31763;48.180;7.904;2024-01-30T04:12:19;9.00;99.90
46029;DHT22;31763;48.180;7.904;2024-01-30T04:14:46;9.00;99.90
46029;DHT22;31763;48.180;7.904;2024-01-30T04:17:12;9.00;99.90
46029;DHT22;31763;48.180;7.904;2024-01-30T04:19:41;8.90;99.90
46029;DHT22;31763;48.180;7.904;2024-01-30T04:22:08;8.90;99.90
46029;DHT22;31763;48.180;7.904;2024-01-30T04:24:35;8.90;99.90
46029;DHT22;31763;48.180;7.904;2024-01-30T04:27:02;9.00;99.90
46029;DHT22;31763;48.180;7.904;2024-01-30T04:29:29;8.90;99.90
46029;DHT22;31763;48.180;7.904;2024-01-30T04:31:56;8.90;99.90
46029;DHT22;31763;48.180;7.904;2024-01-30T04:34:22;8.80;99.90
46029;DHT22;31763;48.180;7.904;2024-01-30T04:36:50;8.80;99.90
46029;DHT22;31763;48.180;7.904;2024-01-30T04:39:17;8.80;99.90
46029;DHT22;31763;48.180;7.904;2024-01-30T04:41:43;8.80;99.90
46029;DHT22;31763;48.180;7.904;2024-01-30T04:44:10;8.80;99.90
46029;DHT22;31763;48.180;7.904;2024-01-30T04:46:37;8.80;99.90
46029;DHT22;31763;48.180;7.904;2024-01-30T04:49:04;8.70;99.90
46029;DHT22;31763;48.180;7.904;2024-01-30T04:51:31;8.70;99.90
46029;DHT22;31763;48.180;7.904;2024-01-30T04:53:58;8.70;99.90
46029;DHT22;31763;48.180;7.904;2024-01-30T04:56:25;8.70;99.90
46029;DHT22;31763;48.180;7.904;2024-01-30T04:58:52;8.60;99.90
46029;DHT22;31763;48.180;7.904;2024-01-30T05:01:18;8.60;99.90
46029;DHT22;31763;48.180;7.904;2024-01-30T05:03:45;8.60;99.90
46029;DHT22;31763;48.180;7.904;2024-01-30T05:06:12;8.60;99.90
46029;DHT22;31763;48.180;7.904;2024-01-30T05:08:39;8.50;99.90
46029;DHT22;31763;48.180;7.904;2024-01-30T05:11:06;8.50;99.90
46029;DHT22;31763;48.180;7.904;2024-01-30T05:13:33;8.50;99.90
46029;DHT22;31763;48.180;7.904;2024-01-30T05:16:02;8.50;99.90
46029;DHT22;31763;48.180;7.904;2024-01-30T05:18:30;8.60;99.90
46029;DHT22;31763;48.180;7.904;2024-01-30T05:20:57;8.60;99.90
46029;DHT22;31763;48.180;7.904;2024-01-30T05:23:24;8.60;99.90
46029;DHT22;31763;48.180;7.904;2024-01-30T05:25:51;8.60;99.90
46029;DHT22;31763;48.180;7.904;2024-01-30T05:28:18;8.50;99.90
46029;DHT22;31763;48.180;7.904;2024-01-30T05:30:45;8.50;99.90
46029;DHT22;31763;48.180;7.904;2024-01-30T05:33:12;8.50;99.90
46029;DHT22;31763;48.180;7.904;2024-01-30T05:35:40;8.50;99.90
46029;DHT22;31763;48.180;7.904;2024-01-30T05:38:06;8.60;99.90
46029;DHT22;31763;48.180;7.904;2024-01-30T05:40:33;8.60;99.90
46029;DHT22;31763;48.180;7.904;2024-01-30T05:43:00;8.60;99.90
46029;DHT22;31763;48.180;7.904;2024-01-30T05:45:29;8.60;99.90
46029;DHT22;31763;48.180;7.904;2024-01-30T05:47:56;8.70;99.90
46029;DHT22;31763;48.180;7.904;2024-01-30T05:50:23;8.60;99.90
46029;DHT22;31763;48.180;7.904;2024-01-30T05:52:50;8.60;99.90
46029;DHT22;31763;48.180;7.904;2024-01-30T05:55:17;8.60;99.90
46029;DHT22;31763;48.180;7.904;2024-01-30T05:57:44;8.70;99.90
46029;DHT22;31763;48.180;7.904;2024-01-30T06:00:11;8.70;99.90
46029;DHT22;31763;48.180;7.904;2024-01-30T06:02:38;8.70;99.90
46029;DHT22;31763;48.180;7.904;2024-01-30T06:05:05;8.80;99.90
46029;DHT22;31763;48.180;7.904;2024-01-30T06:07:32;8.80;99.90
46029;DHT22;31763;48.180;7.904;2024-01-30T06:10:03;8.80;99.90
46029;DHT22;31763;48.180;7.904;2024-01-30T06:12:30;8.80;99.90
46029;DHT22;31763;48.180;7.904;2024-01-30T06:14:57;9.00;99.90
46029;DHT22;31763;48.180;7.904;2024-01-30T06:17:24;8.90;99.90
46029;DHT22;31763;48.180;7.904;2024-01-30T06:19:51;9.00;99.90
46029;DHT22;31763;48.180;7.904;2024-01-30T06:22:18;9.00;99.90
46029;DHT22;31763;48.180;7.904;2024-01-30T06:24:45;9.00;99.90
46029;DHT22;31763;48.180;7.904;2024-01-30T06:27:15;9.10;99.90
46029;DHT22;31763;48.180;7.904;2024-01-30T06:29:43;9.10;99.90
46029;DHT22;31763;48.180;7.904;2024-01-30T06:32:09;9.10;99.90
46029;DHT22;31763;48.180;7.904;2024-01-30T06:34:37;9.00;99.90
46029;DHT22;31763;48.180;7.904;2024-01-30T06:37:05;8.90;99.90
46029;DHT22;31763;48.180;7.904;2024-01-30T06:39:32;9.00;99.90
46029;DHT22;31763;48.180;7.904;2024-01-30T06:41:59;8.90;99.90
46029;DHT22;31763;48.180;7.904;2024-01-30T06:44:26;8.80;99.90
46029;DHT22;31763;48.180;7.904;2024-01-30T06:46:55;8.90;99.90
46029;DHT22;31763;48.180;7.904;2024-01-30T06:49:22;8.90;99.90
46029;DHT22;31763;48.180;7.904;2024-01-30T06:51:49;8.70;99.90
46029;DHT22;31763;48.180;7.904;2024-01-30T06:54:16;8.70;99.90
46029;DHT22;31763;48.180;7.904;2024-01-30T06:56:43;8.70;99.90
46029;DHT22;31763;48.180;7.904;2024-01-30T06:59:09;8.70;99.90
46029;DHT22;31763;48.180;7.904;2024-01-30T07:01:36;8.70;99.90
46029;DHT22;31763;48.180;7.904;2024-01-30T07:04:03;8.70;99.90
46029;DHT22;31763;48.180;7.904;2024-01-30T07:06:30;8.70;99.90
46029;DHT22;31763;48.180;7.904;2024-01-30T07:08:57;8.70;99.90
46029;DHT22;31763;48.180;7.904;2024-01-30T07:11:24;8.60;99.90
46029;DHT22;31763;48.180;7.904;2024-01-30T07:13:51;8.70;99.90
46029;DHT22;31763;48.180;7.904;2024-01-30T07:16:18;8.60;99.90
46029;DHT22;31763;48.180;7.904;2024-01-30T07:18:45;8.70;99.90
46029;DHT22;31763;48.180;7.904;2024-01-30T07:21:12;8.70;99.90
46029;DHT22;31763;48.180;7.904;2024-01-30T07:23:39;8.60;99.90
46029;DHT22;31763;48.180;7.904;2024-01-30T07:26:06;8.70;99.90
46029;DHT22;31763;48.180;7.904;2024-01-30T07:28:35;8.60;99.90
46029;DHT22;31763;48.180;7.904;2024-01-30T07:31:02;8.60;99.90
46029;DHT22;31763;48.180;7.904;2024-01-30T07:33:30;8.60;99.90
46029;DHT22;31763;48.180;7.904;2024-01-30T07:35:56;8.60;99.90
46029;DHT22;31763;48.180;7.904;2024-01-30T07:38:24;8.60;99.90
46029;DHT22;31763;48.180;7.904;2024-01-30T07:40:51;8.50;99.90
46029;DHT22;31763;48.180;7.904;2024-01-30T07:43:18;8.40;99.90
46029;DHT22;31763;48.180;7.904;2024-01-30T07:45:46;8.50;99.90
46029;DHT22;31763;48.180;7.904;2024-01-30T07:48:13;8.60;99.90
46029;DHT22;31763;48.180;7.904;2024-01-30T07:50:40;8.70;99.90
46029;DHT22;31763;48.180;7.904;2024-01-30T07:53:07;8.60;99.90
46029;DHT22;31763;48.180;7.904;2024-01-30T07:55:34;8.60;99.90
46029;DHT22;31763;48.180;7.904;2024-01-30T07:58:01;8.60;99.90
46029;DHT22;31763;48.180;7.904;2024-01-30T08:00:30;8.60;99.90
46029;DHT22;31763;48.180;7.904;2024-01-30T08:02:57;8.70;99.90
46029;DHT22;31763;48.180;7.904;2024-01-30T08:05:24;8.70;99.90
46029;DHT22;31763;48.180;7.904;2024-01-30T08:07:51;8.80;99.90
46029;DHT22;31763;48.180;7.904;2024-01-30T08:10:18;8.70;99.90
46029;DHT22;31763;48.180;7.904;2024-01-30T08:12:45;8.80;99.90
46029;DHT22;31763;48.180;7.904;2024-01-30T08:15:12;8.80;99.90
46029;DHT22;31763;48.180;7.904;2024-01-30T08:17:40;8.90;99.90
46029;DHT22;31763;48.180;7.904;2024-01-30T08:20:07;8.90;99.90
46029;DHT22;31763;48.180;7.904;2024-01-30T08:22:39;9.00;99.90
46029;DHT22;31763;48.180;7.904;2024-01-30T08:25:09;8.90;99.90
46029;DHT22;31763;48.180;7.904;2024-01-30T08:27:36;8.90;99.90
46029;DHT22;31763;48.180;7.904;2024-01-30T08:30:08;9.00;99.90
46029;DHT22;31763;48.180;7.904;2024-01-30T08:32:35;8.90;99.90
46029;DHT22;31763;48.180;7.904;2024-01-30T08:35:02;8.90;99.90
46029;DHT22;31763;48.180;7.904;2024-01-30T08:37:30;8.90;99.90
46029;DHT22;31763;48.180;7.904;2024-01-30T08:39:57;8.90;99.90
46029;DHT22;31763;48.180;7.904;2024-01-30T08:42:24;9.00;99.90
46029;DHT22;31763;48.180;7.904;2024-01-30T08:44:51;9.00;99.90
46029;DHT22;31763;48.180;7.904;2024-01-30T08:47:19;8.90;99.90
46029;DHT22;31763;48.180;7.904;2024-01-30T08:49:46;9.00;99.90
46029;DHT22;31763;48.180;7.904;2024-01-30T08:52:13;9.10;99.90
46029;DHT22;31763;48.180;7.904;2024-01-30T08:54:40;9.10;99.90
46029;DHT22;31763;48.180;7.904;2024-01-30T08:57:07;9.00;99.90
46029;DHT22;31763;48.180;7.904;2024-01-30T08:59:34;9.00;99.90
46029;DHT22;31763;48.180;7.904;2024-01-30T09:02:00;9.10;99.90
46029;DHT22;31763;48.180;7.904;2024-01-30T09:04:38;9.00;99.90
46029;DHT22;31763;48.180;7.904;2024-01-30T09:07:06;9.00;99.90
46029;DHT22;31763;48.180;7.904;2024-01-30T09:09:38;9.10;99.90
46029;DHT22;31763;48.180;7.904;2024-01-30T09:12:07;9.10;99.90
46029;DHT22;31763;48.180;7.904;2024-01-30T09:14:37;9.10;99.90
46029;DHT22;31763;48.180;7.904;2024-01-30T09:17:04;9.10;99.90
46029;DHT22;31763;48.180;7.904;2024-01-30T09:19:31;9.00;99.90
46029;DHT22;31763;48.180;7.904;2024-01-30T09:21:58;9.00;99.90
46029;DHT22;31763;48.180;7.904;2024-01-30T09:24:26;9.10;99.90
46029;DHT22;31763;48.180;7.904;2024-01-30T09:26:54;9.10;99.90
46029;DHT22;31763;48.180;7.904;2024-01-30T09:29:21;9.10;99.90
46029;DHT22;31763;48.180;7.904;2024-01-30T09:31:48;9.20;99.90
46029;DHT22;31763;48.180;7.904;2024-01-30T09:34:15;9.20;99.90
46029;DHT22;31763;48.180;7.904;2024-01-30T09:36:42;9.20;99.90
46029;DHT22;31763;48.180;7.904;2024-01-30T09:39:09;9.30;99.90
46029;DHT22;31763;48.180;7.904;2024-01-30T09:41:45;9.30;99.90
46029;DHT22;31763;48.180;7.904;2024-01-30T09:44:16;9.30;99.90
46029;DHT22;31763;48.180;7.904;2024-01-30T09:46:47;9.30;99.90
46029;DHT22;31763;48.180;7.904;2024-01-30T09:49:17;9.30;99.90
46029;DHT22;31763;48.180;7.904;2024-01-30T09:51:48;9.30;99.90
46029;DHT22;31763;48.180;7.904;2024-01-30T09:54:15;9.30;99.90
46029;DHT22;31763;48.180;7.904;2024-01-30T09:56:42;9.30;99.90
46029;DHT22;31763;48.180;7.904;2024-01-30T09:59:09;9.40;99.90
46029;DHT22;31763;48.180;7.904;2024-01-30T10:01:36;9.30;99.90
46029;DHT22;31763;48.180;7.904;2024-01-30T10:04:04;9.30;99.90
46029;DHT22;31763;48.180;7.904;2024-01-30T10:06:32;9.30;99.90
46029;DHT22;31763;48.180;7.904;2024-01-30T10:08:58;9.30;99.90
46029;DHT22;31763;48.180;7.904;2024-01-30T10:11:26;9.30;99.90
46029;DHT22;31763;48.180;7.904;2024-01-30T10:13:54;9.30;99.90
46029;DHT22;31763;48.180;7.904;2024-01-30T10:16:20;9.30;99.90
46029;DHT22;31763;48.180;7.904;2024-01-30T10:18:47;9.30;99.90
46029;DHT22;31763;48.180;7.904;2024-01-30T10:21:14;9.30;99.90
46029;DHT22;31763;48.180;7.904;2024-01-30T10:23:43;9.30;99.90
46029;DHT22;31763;48.180;7.904;2024-01-30T10:26:11;9.30;99.90
46029;DHT22;31763;48.180;7.904;2024-01-30T10:28:38;9.40;99.90
46029;DHT22;31763;48.180;7.904;2024-01-30T10:31:05;9.40;99.90
46029;DHT22;31763;48.180;7.904;2024-01-30T10:33:33;9.40;99.90
46029;DHT22;31763;48.180;7.904;2024-01-30T10:36:02;9.40;99.90
46029;DHT22;31763;48.180;7.904;2024-01-30T10:38:33;9.50;99.90
46029;DHT22;31763;48.180;7.904;2024-01-30T10:41:01;9.50;99.90
46029;DHT22;31763;48.180;7.904;2024-01-30T10:43:35;9.60;99.90
46029;DHT22;31763;48.180;7.904;2024-01-30T10:46:18;9.70;99.90
46029;DHT22;31763;48.180;7.904;2024-01-30T10:48:58;9.70;99.90
46029;DHT22;31763;48.180;7.904;2024-01-30T10:51:26;9.80;99.90
46029;DHT22;31763;48.180;7.904;2024-01-30T10:53:56;9.80;99.90
46029;DHT22;31763;48.180;7.904;2024-01-30T10:56:25;9.90;99.90
46029;DHT22;31763;48.180;7.904;2024-01-30T10:58:53;10.00;99.90
46029;DHT22;31763;48.180;7.904;2024-01-30T11:01:21;10.00;99.90
46029;DHT22;31763;48.180;7.904;2024-01-30T11:03:51;9.90;99.90
46029;DHT22;31763;48.180;7.904;2024-01-30T11:06:18;9.80;99.90
46029;DHT22;31763;48.180;7.904;2024-01-30T11:09:05;9.80;99.90
46029;DHT22;31763;48.180;7.904;2024-01-30T11:11:58;9.80;99.90
46029;DHT22;31763;48.180;7.904;2024-01-30T11:14:31;9.90;99.90
46029;DHT22;31763;48.180;7.904;2024-01-30T11:16:59;9.90;99.90
46029;DHT22;31763;48.180;7.904;2024-01-30T11:19:27;9.90;99.90
46029;DHT22;31763;48.180;7.904;2024-01-30T11:21:55;9.90;99.90
46029;DHT22;31763;48.180;7.904;2024-01-30T11:24:24;9.90;99.90
46029;DHT22;31763;48.180;7.904;2024-01-30T11:26:58;10.00;99.90
46029;DHT22;31763;48.180;7.904;2024-01-30T11:29:27;10.00;99.90
46029;DHT22;31763;48.180;7.904;2024-01-30T11:31:56;10.00;99.90
46029;DHT22;31763;48.180;7.904;2024-01-30T11:34:24;10.00;99.90
46029;DHT22;31763;48.180;7.904;2024-01-30T11:36:57;10.00;99.90
46029;DHT22;31763;48.180;7.904;2024-01-30T11:39:26;10.10;99.90
46029;DHT22;31763;48.180;7.904;2024-01-30T11:41:55;10.10;99.90
46029;DHT22;31763;48.180;7.904;2024-01-30T11:44:22;10.20;99.90
46029;DHT22;31763;48.180;7.904;2024-01-30T11:46:51;10.20;99.90
46029;DHT22;31763;48.180;7.904;2024-01-30T11:49:18;10.30;99.90
46029;DHT22;31763;48.180;7.904;2024-01-30T11:51:46;10.30;99.90
46029;DHT22;31763;48.180;7.904;2024-01-30T11:54:18;10.40;99.90
46029;DHT22;31763;48.180;7.904;2024-01-30T11:56:45;10.40;99.90
46029;DHT22;31763;48.180;7.904;2024-01-30T11:59:12;10.70;99.90
46029;DHT22;31763;48.180;7.904;2024-01-30T12:01:40;10.60;99.90
46029;DHT22;31763;48.180;7.904;2024-01-30T12:04:08;10.40;99.90
46029;DHT22;31763;48.180;7.904;2024-01-30T12:06:37;10.40;99.90
46029;DHT22;31763;48.180;7.904;2024-01-30T12:09:04;10.40;99.90
46029;DHT22;31763;48.180;7.904;2024-01-30T12:11:32;10.40;99.90
46029;DHT22;31763;48.180;7.904;2024-01-30T12:13:59;10.40;99.90
46029;DHT22;31763;48.180;7.904;2024-01-30T12:16:26;10.40;99.90
46029;DHT22;31763;48.180;7.904;2024-01-30T12:19:00;10.40;99.90
46029;DHT22;31763;48.180;7.904;2024-01-30T12:21:30;10.40;99.90
46029;DHT22;31763;48.180;7.904;2024-01-30T12:23:57;10.50;99.90
46029;DHT22;31763;48.180;7.904;2024-01-30T12:26:26;10.50;99.90
46029;DHT22;31763;48.180;7.904;2024-01-30T12:28:56;10.60;99.90
46029;DHT22;31763;48.180;7.904;2024-01-30T12:31:28;10.70;99.90
46029;DHT22;31763;48.180;7.904;2024-01-30T12:33:56;10.70;99.90
46029;DHT22;31763;48.180;7.904;2024-01-30T12:36:25;10.60;99.90
46029;DHT22;31763;48.180;7.904;2024-01-30T12:38:52;10.60;99.90
46029;DHT22;31763;48.180;7.904;2024-01-30T12:41:20;10.50;99.90
46029;DHT22;31763;48.180;7.904;2024-01-30T12:43:47;10.40;99.90
46029;DHT22;31763;48.180;7.904;2024-01-30T12:46:17;10.40;99.90
46029;DHT22;31763;48.180;7.904;2024-01-30T12:48:44;10.40;99.90
46029;DHT22;31763;48.180;7.904;2024-01-30T12:51:11;10.40;99.90
46029;DHT22;31763;48.180;7.904;2024-01-30T12:53:38;10.50;99.90
46029;DHT22;31763;48.180;7.904;2024-01-30T12:56:05;10.60;99.90
46029;DHT22;31763;48.180;7.904;2024-01-30T12:58:32;10.50;99.90
46029;DHT22;31763;48.180;7.904;2024-01-30T13:00:59;10.40;99.90
46029;DHT22;31763;48.180;7.904;2024-01-30T13:03:26;10.40;99.90
46029;DHT22;31763;48.180;7.904;2024-01-30T13:05:53;10.40;99.90
46029;DHT22;31763;48.180;7.904;2024-01-30T13:08:21;10.30;99.90
46029;DHT22;31763;48.180;7.904;2024-01-30T13:10:48;10.30;99.90
46029;DHT22;31763;48.180;7.904;2024-01-30T13:13:16;10.40;99.90
46029;DHT22;31763;48.180;7.904;2024-01-30T13:15:47;10.30;99.90
46029;DHT22;31763;48.180;7.904;2024-01-30T13:18:15;10.40;99.90
46029;DHT22;31763;48.180;7.904;2024-01-30T13:20:42;10.40;99.90
46029;DHT22;31763;48.180;7.904;2024-01-30T13:23:09;10.40;99.90
46029;DHT22;31763;48.180;7.904;2024-01-30T13:25:36;10.30;99.90
46029;DHT22;31763;48.180;7.904;2024-01-30T13:28:03;10.40;99.90
46029;DHT22;31763;48.180;7.904;2024-01-30T13:30:30;10.40;99.90
46029;DHT22;31763;48.180;7.904;2024-01-30T13:32:57;10.40;99.90
46029;DHT22;31763;48.180;7.904;2024-01-30T13:35:25;10.50;99.90
46029;DHT22;31763;48.180;7.904;2024-01-30T13:37:52;10.50;99.90
46029;DHT22;31763;48.180;7.904;2024-01-30T13:40:19;10.50;99.90
46029;DHT22;31763;48.180;7.904;2024-01-30T13:42:46;10.50;99.90
46029;DHT22;31763;48.180;7.904;2024-01-30T13:45:14;10.40;99.90
46029;DHT22;31763;48.180;7.904;2024-01-30T13:47:41;10.30;99.90
46029;DHT22;31763;48.180;7.904;2024-01-30T13:50:08;10.30;99.90
46029;DHT22;31763;48.180;7.904;2024-01-30T13:52:37;10.30;99.90
46029;DHT22;31763;48.180;7.904;2024-01-30T13:55:11;10.20;99.90
46029;DHT22;31763;48.180;7.904;2024-01-30T13:57:38;10.20;99.90
46029;DHT22;31763;48.180;7.904;2024-01-30T14:00:05;10.20;99.90
46029;DHT22;31763;48.180;7.904;2024-01-30T14:02:33;10.20;99.90
46029;DHT22;31763;48.180;7.904;2024-01-30T14:05:00;10.20;99.90
46029;DHT22;31763;48.180;7.904;2024-01-30T14:07:28;10.20;99.90
46029;DHT22;31763;48.180;7.904;2024-01-30T14:09:55;10.20;99.90
46029;DHT22;31763;48.180;7.904;2024-01-30T14:12:22;10.20;99.90
46029;DHT22;31763;48.180;7.904;2024-01-30T14:14:49;10.20;99.90
46029;DHT22;31763;48.180;7.904;2024-01-30T14:17:16;10.20;99.90
46029;DHT22;31763;48.180;7.904;2024-01-30T14:19:42;10.20;99.90
46029;DHT22;31763;48.180;7.904;2024-01-30T14:22:09;10.20;99.90
46029;DHT22;31763;48.180;7.904;2024-01-30T14:24:36;10.20;99.90
46029;DHT22;31763;48.180;7.904;2024-01-30T14:27:04;10.20;99.90
46029;DHT22;31763;48.180;7.904;2024-01-30T14:29:31;10.20;99.90
46029;DHT22;31763;48.180;7.904;2024-01-30T14:31:57;10.10;99.90
46029;DHT22;31763;48.180;7.904;2024-01-30T14:34:24;10.10;99.90
46029;DHT22;31763;48.180;7.904;2024-01-30T14:36:51;10.10;99.90
46029;DHT22;31763;48.180;7.904;2024-01-30T14:39:19;10.10;99.90
46029;DHT22;31763;48.180;7.904;2024-01-30T14:41:45;10.00;99.90
46029;DHT22;31763;48.180;7.904;2024-01-30T14:44:12;10.00;99.90
46029;DHT22;31763;48.180;7.904;2024-01-30T14:46:40;10.00;99.90
46029;DHT22;31763;48.180;7.904;2024-01-30T14:49:07;10.00;99.90
46029;DHT22;31763;48.180;7.904;2024-01-30T14:51:36;10.00;99.90
46029;DHT22;31763;48.180;7.904;2024-01-30T14:54:03;10.00;99.90
46029;DHT22;31763;48.180;7.904;2024-01-30T14:56:30;10.00;99.90
46029;DHT22;31763;48.180;7.904;2024-01-30T14:58:57;10.00;99.90
46029;DHT22;31763;48.180;7.904;2024-01-30T15:01:25;10.10;99.90
46029;DHT22;31763;48.180;7.904;2024-01-30T15:03:52;10.00;99.90
46029;DHT22;31763;48.180;7.904;2024-01-30T15:06:19;10.00;99.90
46029;DHT22;31763;48.180;7.904;2024-01-30T15:08:47;10.10;99.90
46029;DHT22;31763;48.180;7.904;2024-01-30T15:11:14;10.00;99.90
46029;DHT22;31763;48.180;7.904;2024-01-30T15:13:41;10.00;99.90
46029;DHT22;31763;48.180;7.904;2024-01-30T15:16:08;9.90;99.90
46029;DHT22;31763;48.180;7.904;2024-01-30T15:18:35;9.90;99.90
46029;DHT22;31763;48.180;7.904;2024-01-30T15:21:02;9.90;99.90
46029;DHT22;31763;48.180;7.904;2024-01-30T15:23:29;9.90;99.90
46029;DHT22;31763;48.180;7.904;2024-01-30T15:25:56;9.80;99.90
46029;DHT22;31763;48.180;7.904;2024-01-30T15:28:34;9.90;99.90
46029;DHT22;31763;48.180;7.904;2024-01-30T15:31:03;9.80;99.90
46029;DHT22;31763;48.180;7.904;2024-01-30T15:33:31;9.90;99.90
46029;DHT22;31763;48.180;7.904;2024-01-30T15:36:00;9.80;99.90
46029;DHT22;31763;48.180;7.904;2024-01-30T15:38:27;9.80;99.90
46029;DHT22;31763;48.180;7.904;2024-01-30T15:40:55;9.90;99.90
46029;DHT22;31763;48.180;7.904;2024-01-30T15:43:23;9.80;99.90
46029;DHT22;31763;48.180;7.904;2024-01-30T15:45:50;9.80;99.90
46029;DHT22;31763;48.180;7.904;2024-01-30T15:48:19;9.90;99.90